Rincon de la Victoria, Spain
Current Conditions -  °F | °C
As of 4:30 PM on Saturday 22 Nov 2014 (Local Time) from LEMG Reporting Station
Clear Clear  
Wind Chill: 66°   Ceiling: Unl
Heat Index: 66°   Visibility: 6mi
Dew Point: 55°   Wind: 2mph
Humidity: 68%   Direction: 150°SSE
Pressure: 29.74"   Gusts: NA
Location:  36.72°N, 4.28°W
Report Text: LEMG 221530Z 15002KT CAVOK 19/13 Q1007 NOSIG
Loading
Personal Weather Stations






























Interactive Weather Map New forecast layout! Learn more

10-Day Weather Forecast

Advertisements
Track Severe Weather on mobile